ENVA/TRD METAR and TAF weather

Enter ICAO airport designator
Station Type Date Time Source
ENVA METAR 2019/12/11 17:20 UTC NOAA

ENVA 111720Z 10007KT CAVOK 05/M04 Q0987 TEMPO 17015G25KT RMK WIND 670FT 16006KT


Station Type Date Time Source
ENVA Decoded METAR 2019/12/11 17:20 UTC NOAA

Trondheim / Vaernes, Norway (ENVA) 63-28N 010-56E 17M
Dec 11, 2019 - 12:20 PM EST / 2019.12.11 1720 UTC
Wind: from the E (100 degrees) at 8 MPH (7 KT):0
Visibility: greater than 7 mile(s):0
Temperature: 41 F (5 C)
Dew Point: 24 F (-4 C)
Relative Humidity: 52%
Pressure (altimeter): 29.15 in. Hg (0987 hPa)
ob: ENVA 111720Z 10007KT CAVOK 05/M04 Q0987 TEMPO 17015G25KT RMK WIND 670FT 16006KT
cycle: 17

Station Type Date Time Source
ENVA TAF 2019/12/11 18:51 UTC NOAA

ENVA 1118/1218 14012KT 9999 FEW025 SCT060
TEMPO 1118/1218 17022G35KT

Example: see airport list